sensor_id;sensor_type;location;lat;lon;timestamp;P1;durP1;ratioP1;P2;durP2;ratioP2
63005;SDS011;53704;52.532;6.426;2024-02-15T00:02:03;35.35;;;18.27;;
63005;SDS011;53704;52.532;6.426;2024-02-15T00:04:29;32.35;;;16.98;;
63005;SDS011;53704;52.532;6.426;2024-02-15T00:06:55;29.08;;;15.85;;
63005;SDS011;53704;52.532;6.426;2024-02-15T00:09:21;36.47;;;17.60;;
63005;SDS011;53704;52.532;6.426;2024-02-15T00:11:48;48.95;;;17.58;;
63005;SDS011;53704;52.532;6.426;2024-02-15T00:14:18;30.25;;;16.05;;
63005;SDS011;53704;52.532;6.426;2024-02-15T00:16:44;26.45;;;16.08;;
63005;SDS011;53704;52.532;6.426;2024-02-15T00:19:11;38.80;;;17.17;;
63005;SDS011;53704;52.532;6.426;2024-02-15T00:21:36;31.10;;;17.00;;
63005;SDS011;53704;52.532;6.426;2024-02-15T00:24:02;31.13;;;17.17;;
63005;SDS011;53704;52.532;6.426;2024-02-15T00:26:28;34.38;;;17.05;;
63005;SDS011;53704;52.532;6.426;2024-02-15T00:28:56;31.67;;;16.58;;
63005;SDS011;53704;52.532;6.426;2024-02-15T00:31:23;30.50;;;17.15;;
63005;SDS011;53704;52.532;6.426;2024-02-15T00:33:49;36.38;;;17.63;;
63005;SDS011;53704;52.532;6.426;2024-02-15T00:36:14;35.42;;;16.92;;
63005;SDS011;53704;52.532;6.426;2024-02-15T00:38:40;35.70;;;18.02;;
63005;SDS011;53704;52.532;6.426;2024-02-15T00:41:08;38.47;;;16.92;;
63005;SDS011;53704;52.532;6.426;2024-02-15T00:43:36;35.30;;;16.83;;
63005;SDS011;53704;52.532;6.426;2024-02-15T00:46:03;36.85;;;16.00;;
63005;SDS011;53704;52.532;6.426;2024-02-15T00:48:29;50.90;;;16.40;;
63005;SDS011;53704;52.532;6.426;2024-02-15T00:50:55;37.05;;;15.63;;
63005;SDS011;53704;52.532;6.426;2024-02-15T00:53:21;26.75;;;15.48;;
63005;SDS011;53704;52.532;6.426;2024-02-15T00:55:47;31.02;;;14.63;;
63005;SDS011;53704;52.532;6.426;2024-02-15T00:58:13;36.13;;;14.55;;
63005;SDS011;53704;52.532;6.426;2024-02-15T01:00:39;43.70;;;15.45;;
63005;SDS011;53704;52.532;6.426;2024-02-15T01:03:07;36.65;;;14.68;;
63005;SDS011;53704;52.532;6.426;2024-02-15T01:05:33;34.60;;;13.20;;
63005;SDS011;53704;52.532;6.426;2024-02-15T01:07:59;36.92;;;13.15;;
63005;SDS011;53704;52.532;6.426;2024-02-15T01:10:25;32.05;;;12.98;;
63005;SDS011;53704;52.532;6.426;2024-02-15T01:12:52;33.95;;;13.38;;
63005;SDS011;53704;52.532;6.426;2024-02-15T01:15:18;30.45;;;15.23;;
63005;SDS011;53704;52.532;6.426;2024-02-15T01:17:45;39.30;;;14.10;;
63005;SDS011;53704;52.532;6.426;2024-02-15T01:20:13;29.90;;;14.77;;
63005;SDS011;53704;52.532;6.426;2024-02-15T01:22:40;47.88;;;16.30;;
63005;SDS011;53704;52.532;6.426;2024-02-15T01:25:06;31.52;;;15.23;;
63005;SDS011;53704;52.532;6.426;2024-02-15T01:27:36;37.38;;;15.63;;
63005;SDS011;53704;52.532;6.426;2024-02-15T01:30:01;41.40;;;16.67;;
63005;SDS011;53704;52.532;6.426;2024-02-15T01:32:28;33.55;;;17.17;;
63005;SDS011;53704;52.532;6.426;2024-02-15T01:34:57;42.88;;;18.63;;
63005;SDS011;53704;52.532;6.426;2024-02-15T01:37:22;44.25;;;17.95;;
63005;SDS011;53704;52.532;6.426;2024-02-15T01:39:49;28.45;;;17.33;;
63005;SDS011;53704;52.532;6.426;2024-02-15T01:42:16;48.50;;;19.27;;
63005;SDS011;53704;52.532;6.426;2024-02-15T01:44:41;51.72;;;20.05;;
63005;SDS011;53704;52.532;6.426;2024-02-15T01:47:09;45.83;;;19.27;;
63005;SDS011;53704;52.532;6.426;2024-02-15T01:49:36;37.30;;;19.83;;
63005;SDS011;53704;52.532;6.426;2024-02-15T01:52:02;42.95;;;19.42;;
63005;SDS011;53704;52.532;6.426;2024-02-15T01:54:33;43.60;;;20.55;;
63005;SDS011;53704;52.532;6.426;2024-02-15T01:57:01;40.05;;;19.67;;
63005;SDS011;53704;52.532;6.426;2024-02-15T01:59:28;34.78;;;19.23;;
63005;SDS011;53704;52.532;6.426;2024-02-15T02:01:54;40.10;;;20.25;;
63005;SDS011;53704;52.532;6.426;2024-02-15T02:04:19;47.58;;;20.63;;
63005;SDS011;53704;52.532;6.426;2024-02-15T02:06:49;42.15;;;19.42;;
63005;SDS011;53704;52.532;6.426;2024-02-15T02:09:14;51.13;;;21.08;;
63005;SDS011;53704;52.532;6.426;2024-02-15T02:11:41;49.80;;;20.52;;
63005;SDS011;53704;52.532;6.426;2024-02-15T02:14:09;48.15;;;20.83;;
63005;SDS011;53704;52.532;6.426;2024-02-15T02:16:36;56.70;;;21.65;;
63005;SDS011;53704;52.532;6.426;2024-02-15T02:19:02;45.97;;;19.92;;
63005;SDS011;53704;52.532;6.426;2024-02-15T02:21:33;47.42;;;20.13;;
63005;SDS011;53704;52.532;6.426;2024-02-15T02:24:00;50.05;;;20.08;;
63005;SDS011;53704;52.532;6.426;2024-02-15T02:26:33;43.05;;;21.60;;
63005;SDS011;53704;52.532;6.426;2024-02-15T02:29:02;44.88;;;19.67;;
63005;SDS011;53704;52.532;6.426;2024-02-15T02:31:33;51.67;;;19.73;;
63005;SDS011;53704;52.532;6.426;2024-02-15T02:33:59;48.42;;;20.92;;
63005;SDS011;53704;52.532;6.426;2024-02-15T02:36:26;35.97;;;18.42;;
63005;SDS011;53704;52.532;6.426;2024-02-15T02:38:54;46.42;;;20.33;;
63005;SDS011;53704;52.532;6.426;2024-02-15T02:41:20;51.90;;;19.05;;
63005;SDS011;53704;52.532;6.426;2024-02-15T02:43:46;49.08;;;19.05;;
63005;SDS011;53704;52.532;6.426;2024-02-15T02:46:12;38.22;;;18.63;;
63005;SDS011;53704;52.532;6.426;2024-02-15T02:48:38;37.72;;;19.10;;
63005;SDS011;53704;52.532;6.426;2024-02-15T02:51:07;45.50;;;18.50;;
63005;SDS011;53704;52.532;6.426;2024-02-15T02:53:32;50.03;;;18.77;;
63005;SDS011;53704;52.532;6.426;2024-02-15T02:55:59;45.03;;;17.77;;
63005;SDS011;53704;52.532;6.426;2024-02-15T02:58:24;38.17;;;17.83;;
63005;SDS011;53704;52.532;6.426;2024-02-15T03:00:51;37.92;;;17.88;;
63005;SDS011;53704;52.532;6.426;2024-02-15T03:03:17;40.75;;;18.52;;
63005;SDS011;53704;52.532;6.426;2024-02-15T03:05:44;38.45;;;16.75;;
63005;SDS011;53704;52.532;6.426;2024-02-15T03:08:13;47.67;;;16.67;;
63005;SDS011;53704;52.532;6.426;2024-02-15T03:10:41;43.45;;;19.52;;
63005;SDS011;53704;52.532;6.426;2024-02-15T03:13:07;42.63;;;20.95;;
63005;SDS011;53704;52.532;6.426;2024-02-15T03:15:34;54.42;;;22.02;;
63005;SDS011;53704;52.532;6.426;2024-02-15T03:18:00;53.72;;;21.63;;
63005;SDS011;53704;52.532;6.426;2024-02-15T03:20:31;37.30;;;21.50;;
63005;SDS011;53704;52.532;6.426;2024-02-15T03:22:59;50.20;;;22.70;;
63005;SDS011;53704;52.532;6.426;2024-02-15T03:25:27;58.58;;;23.17;;
63005;SDS011;53704;52.532;6.426;2024-02-15T03:27:57;53.30;;;24.23;;
63005;SDS011;53704;52.532;6.426;2024-02-15T03:30:24;53.00;;;24.70;;
63005;SDS011;53704;52.532;6.426;2024-02-15T03:32:51;50.53;;;24.92;;
63005;SDS011;53704;52.532;6.426;2024-02-15T03:35:18;55.45;;;26.95;;
63005;SDS011;53704;52.532;6.426;2024-02-15T03:37:51;53.28;;;27.05;;
63005;SDS011;53704;52.532;6.426;2024-02-15T03:40:17;54.90;;;26.45;;
63005;SDS011;53704;52.532;6.426;2024-02-15T03:42:44;56.85;;;28.13;;
63005;SDS011;53704;52.532;6.426;2024-02-15T03:45:10;49.33;;;28.17;;
63005;SDS011;53704;52.532;6.426;2024-02-15T03:47:36;57.53;;;28.27;;
63005;SDS011;53704;52.532;6.426;2024-02-15T03:50:02;67.13;;;29.83;;
63005;SDS011;53704;52.532;6.426;2024-02-15T03:52:33;68.45;;;30.77;;
63005;SDS011;53704;52.532;6.426;2024-02-15T03:55:00;53.15;;;30.33;;
63005;SDS011;53704;52.532;6.426;2024-02-15T03:57:27;51.10;;;29.02;;
63005;SDS011;53704;52.532;6.426;2024-02-15T03:59:53;60.67;;;29.65;;
63005;SDS011;53704;52.532;6.426;2024-02-15T04:02:22;57.58;;;30.25;;
63005;SDS011;53704;52.532;6.426;2024-02-15T04:04:51;55.92;;;28.55;;
63005;SDS011;53704;52.532;6.426;2024-02-15T04:07:19;55.05;;;29.88;;
63005;SDS011;53704;52.532;6.426;2024-02-15T04:09:45;55.22;;;28.85;;
63005;SDS011;53704;52.532;6.426;2024-02-15T04:12:12;55.70;;;29.55;;
63005;SDS011;53704;52.532;6.426;2024-02-15T04:14:38;56.90;;;29.00;;
63005;SDS011;53704;52.532;6.426;2024-02-15T04:17:05;50.90;;;26.73;;
63005;SDS011;53704;52.532;6.426;2024-02-15T04:19:31;49.25;;;29.05;;
63005;SDS011;53704;52.532;6.426;2024-02-15T04:21:57;59.08;;;26.33;;
63005;SDS011;53704;52.532;6.426;2024-02-15T04:24:25;62.38;;;27.73;;
63005;SDS011;53704;52.532;6.426;2024-02-15T04:26:51;55.55;;;27.38;;
63005;SDS011;53704;52.532;6.426;2024-02-15T04:29:18;52.05;;;26.30;;
63005;SDS011;53704;52.532;6.426;2024-02-15T04:31:45;42.60;;;24.92;;
63005;SDS011;53704;52.532;6.426;2024-02-15T04:34:14;45.40;;;25.55;;
63005;SDS011;53704;52.532;6.426;2024-02-15T04:36:40;43.70;;;24.85;;
63005;SDS011;53704;52.532;6.426;2024-02-15T04:39:10;61.95;;;26.00;;
63005;SDS011;53704;52.532;6.426;2024-02-15T04:41:40;45.65;;;25.77;;
63005;SDS011;53704;52.532;6.426;2024-02-15T04:44:11;51.60;;;24.25;;
63005;SDS011;53704;52.532;6.426;2024-02-15T04:46:37;51.67;;;24.73;;
63005;SDS011;53704;52.532;6.426;2024-02-15T04:49:02;52.83;;;24.50;;
63005;SDS011;53704;52.532;6.426;2024-02-15T04:51:28;42.83;;;23.23;;
63005;SDS011;53704;52.532;6.426;2024-02-15T04:53:54;54.83;;;24.20;;
63005;SDS011;53704;52.532;6.426;2024-02-15T04:56:20;56.63;;;22.70;;
63005;SDS011;53704;52.532;6.426;2024-02-15T04:58:46;43.17;;;22.25;;
63005;SDS011;53704;52.532;6.426;2024-02-15T05:01:17;45.88;;;21.00;;
63005;SDS011;53704;52.532;6.426;2024-02-15T05:03:43;43.50;;;20.75;;
63005;SDS011;53704;52.532;6.426;2024-02-15T05:06:09;49.33;;;21.52;;
63005;SDS011;53704;52.532;6.426;2024-02-15T05:08:37;50.70;;;20.75;;
63005;SDS011;53704;52.532;6.426;2024-02-15T05:11:11;54.22;;;21.20;;
63005;SDS011;53704;52.532;6.426;2024-02-15T05:13:47;47.40;;;20.05;;
63005;SDS011;53704;52.532;6.426;2024-02-15T05:16:15;42.30;;;19.90;;
63005;SDS011;53704;52.532;6.426;2024-02-15T05:18:42;47.58;;;20.10;;
63005;SDS011;53704;52.532;6.426;2024-02-15T05:21:07;40.75;;;18.83;;
63005;SDS011;53704;52.532;6.426;2024-02-15T05:23:36;43.25;;;20.67;;
63005;SDS011;53704;52.532;6.426;2024-02-15T05:26:05;33.95;;;18.25;;
63005;SDS011;53704;52.532;6.426;2024-02-15T05:28:31;51.03;;;19.70;;
63005;SDS011;53704;52.532;6.426;2024-02-15T05:31:19;42.58;;;19.65;;
63005;SDS011;53704;52.532;6.426;2024-02-15T05:33:49;44.33;;;19.90;;
63005;SDS011;53704;52.532;6.426;2024-02-15T05:36:16;44.38;;;19.15;;
63005;SDS011;53704;52.532;6.426;2024-02-15T05:38:47;34.00;;;18.95;;
63005;SDS011;53704;52.532;6.426;2024-02-15T05:41:17;38.75;;;18.45;;
63005;SDS011;53704;52.532;6.426;2024-02-15T05:43:44;48.40;;;19.27;;
63005;SDS011;53704;52.532;6.426;2024-02-15T05:46:11;48.17;;;20.67;;
63005;SDS011;53704;52.532;6.426;2024-02-15T05:48:38;40.85;;;22.65;;
63005;SDS011;53704;52.532;6.426;2024-02-15T05:51:04;47.97;;;21.80;;
63005;SDS011;53704;52.532;6.426;2024-02-15T05:53:32;47.22;;;21.40;;
63005;SDS011;53704;52.532;6.426;2024-02-15T05:56:00;44.70;;;20.40;;
63005;SDS011;53704;52.532;6.426;2024-02-15T05:58:33;39.53;;;19.08;;
63005;SDS011;53704;52.532;6.426;2024-02-15T06:01:02;35.83;;;18.60;;
63005;SDS011;53704;52.532;6.426;2024-02-15T06:03:33;43.42;;;17.08;;
63005;SDS011;53704;52.532;6.426;2024-02-15T06:06:03;35.20;;;17.25;;
63005;SDS011;53704;52.532;6.426;2024-02-15T06:08:35;32.83;;;15.70;;
63005;SDS011;53704;52.532;6.426;2024-02-15T06:11:02;50.92;;;16.85;;
63005;SDS011;53704;52.532;6.426;2024-02-15T06:13:31;37.95;;;16.38;;
63005;SDS011;53704;52.532;6.426;2024-02-15T06:15:57;32.92;;;15.25;;
63005;SDS011;53704;52.532;6.426;2024-02-15T06:18:32;34.22;;;15.18;;
63005;SDS011;53704;52.532;6.426;2024-02-15T06:20:59;40.30;;;14.75;;
63005;SDS011;53704;52.532;6.426;2024-02-15T06:23:25;40.47;;;14.40;;
63005;SDS011;53704;52.532;6.426;2024-02-15T06:25:52;45.10;;;14.85;;
63005;SDS011;53704;52.532;6.426;2024-02-15T06:28:21;41.25;;;15.27;;
63005;SDS011;53704;52.532;6.426;2024-02-15T06:31:09;35.63;;;14.65;;
63005;SDS011;53704;52.532;6.426;2024-02-15T06:33:54;41.53;;;13.43;;
63005;SDS011;53704;52.532;6.426;2024-02-15T06:36:55;28.65;;;13.30;;
63005;SDS011;53704;52.532;6.426;2024-02-15T06:39:39;36.30;;;12.25;;
63005;SDS011;53704;52.532;6.426;2024-02-15T06:42:07;29.88;;;12.88;;
63005;SDS011;53704;52.532;6.426;2024-02-15T06:44:48;38.20;;;12.25;;
63005;SDS011;53704;52.532;6.426;2024-02-15T06:47:17;42.70;;;13.05;;
63005;SDS011;53704;52.532;6.426;2024-02-15T06:49:45;38.85;;;12.85;;
63005;SDS011;53704;52.532;6.426;2024-02-15T06:52:14;31.63;;;11.90;;
63005;SDS011;53704;52.532;6.426;2024-02-15T06:54:41;35.15;;;11.60;;
63005;SDS011;53704;52.532;6.426;2024-02-15T06:57:07;31.60;;;11.25;;
63005;SDS011;53704;52.532;6.426;2024-02-15T06:59:36;37.80;;;10.88;;
63005;SDS011;53704;52.532;6.426;2024-02-15T07:02:04;32.50;;;11.18;;
63005;SDS011;53704;52.532;6.426;2024-02-15T07:04:31;34.78;;;12.27;;
63005;SDS011;53704;52.532;6.426;2024-02-15T07:06:58;27.40;;;12.13;;
63005;SDS011;53704;52.532;6.426;2024-02-15T07:09:27;36.38;;;11.65;;
63005;SDS011;53704;52.532;6.426;2024-02-15T07:11:53;30.15;;;12.18;;
63005;SDS011;53704;52.532;6.426;2024-02-15T07:14:20;22.52;;;10.15;;
63005;SDS011;53704;52.532;6.426;2024-02-15T07:16:49;21.40;;;9.30;;
63005;SDS011;53704;52.532;6.426;2024-02-15T07:19:16;26.70;;;10.23;;
63005;SDS011;53704;52.532;6.426;2024-02-15T07:21:43;25.70;;;11.18;;
63005;SDS011;53704;52.532;6.426;2024-02-15T07:24:11;22.85;;;10.35;;
63005;SDS011;53704;52.532;6.426;2024-02-15T07:26:38;22.83;;;9.75;;
63005;SDS011;53704;52.532;6.426;2024-02-15T07:29:05;29.33;;;10.05;;
63005;SDS011;53704;52.532;6.426;2024-02-15T07:31:34;29.75;;;10.30;;
63005;SDS011;53704;52.532;6.426;2024-02-15T07:34:03;19.60;;;10.20;;
63005;SDS011;53704;52.532;6.426;2024-02-15T07:36:30;20.10;;;10.65;;
63005;SDS011;53704;52.532;6.426;2024-02-15T07:38:57;18.50;;;9.75;;
63005;SDS011;53704;52.532;6.426;2024-02-15T07:41:25;31.00;;;11.70;;
63005;SDS011;53704;52.532;6.426;2024-02-15T07:43:52;26.95;;;9.55;;
63005;SDS011;53704;52.532;6.426;2024-02-15T07:46:20;23.20;;;10.13;;
63005;SDS011;53704;52.532;6.426;2024-02-15T07:48:47;28.42;;;10.20;;
63005;SDS011;53704;52.532;6.426;2024-02-15T07:51:14;20.83;;;9.88;;
63005;SDS011;53704;52.532;6.426;2024-02-15T07:53:43;17.60;;;9.98;;
63005;SDS011;53704;52.532;6.426;2024-02-15T07:56:09;17.30;;;9.00;;
63005;SDS011;53704;52.532;6.426;2024-02-15T07:58:43;30.38;;;9.77;;
63005;SDS011;53704;52.532;6.426;2024-02-15T08:01:14;25.08;;;9.60;;
63005;SDS011;53704;52.532;6.426;2024-02-15T08:03:41;17.30;;;9.65;;
63005;SDS011;53704;52.532;6.426;2024-02-15T08:06:09;20.77;;;8.70;;
63005;SDS011;53704;52.532;6.426;2024-02-15T08:08:38;23.33;;;9.50;;
63005;SDS011;53704;52.532;6.426;2024-02-15T08:11:07;22.60;;;9.82;;
63005;SDS011;53704;52.532;6.426;2024-02-15T08:13:49;19.50;;;9.75;;
63005;SDS011;53704;52.532;6.426;2024-02-15T08:16:19;26.95;;;10.10;;
63005;SDS011;53704;52.532;6.426;2024-02-15T08:18:49;25.63;;;10.02;;
63005;SDS011;53704;52.532;6.426;2024-02-15T08:21:29;24.75;;;9.65;;
63005;SDS011;53704;52.532;6.426;2024-02-15T08:23:58;32.45;;;10.93;;
63005;SDS011;53704;52.532;6.426;2024-02-15T08:26:38;20.30;;;10.30;;
63005;SDS011;53704;52.532;6.426;2024-02-15T08:29:06;37.85;;;11.43;;
63005;SDS011;53704;52.532;6.426;2024-02-15T08:31:33;29.48;;;10.90;;
63005;SDS011;53704;52.532;6.426;2024-02-15T08:33:59;23.60;;;10.82;;
63005;SDS011;53704;52.532;6.426;2024-02-15T08:36:26;29.98;;;11.40;;
63005;SDS011;53704;52.532;6.426;2024-02-15T08:38:52;35.65;;;11.07;;
63005;SDS011;53704;52.532;6.426;2024-02-15T08:41:19;25.35;;;10.07;;
63005;SDS011;53704;52.532;6.426;2024-02-15T08:43:52;22.85;;;9.40;;
63005;SDS011;53704;52.532;6.426;2024-02-15T08:46:25;18.80;;;8.90;;
63005;SDS011;53704;52.532;6.426;2024-02-15T08:48:52;17.27;;;8.45;;
63005;SDS011;53704;52.532;6.426;2024-02-15T08:51:18;15.57;;;9.23;;
63005;SDS011;53704;52.532;6.426;2024-02-15T08:53:46;11.85;;;7.68;;
63005;SDS011;53704;52.532;6.426;2024-02-15T08:56:14;14.57;;;8.70;;
63005;SDS011;53704;52.532;6.426;2024-02-15T08:58:40;13.15;;;7.32;;
63005;SDS011;53704;52.532;6.426;2024-02-15T09:01:11;10.55;;;7.40;;
63005;SDS011;53704;52.532;6.426;2024-02-15T09:03:40;8.65;;;7.40;;
63005;SDS011;53704;52.532;6.426;2024-02-15T09:06:06;11.48;;;7.72;;
63005;SDS011;53704;52.532;6.426;2024-02-15T09:08:34;7.60;;;6.70;;
63005;SDS011;53704;52.532;6.426;2024-02-15T09:11:00;14.93;;;6.65;;
63005;SDS011;53704;52.532;6.426;2024-02-15T09:13:27;11.55;;;7.00;;
63005;SDS011;53704;52.532;6.426;2024-02-15T09:15:53;15.93;;;7.60;;
63005;SDS011;53704;52.532;6.426;2024-02-15T09:18:20;6.85;;;6.25;;
63005;SDS011;53704;52.532;6.426;2024-02-15T09:20:48;7.65;;;5.88;;
63005;SDS011;53704;52.532;6.426;2024-02-15T09:23:20;6.47;;;5.97;;
63005;SDS011;53704;52.532;6.426;2024-02-15T09:25:48;16.08;;;6.05;;
63005;SDS011;53704;52.532;6.426;2024-02-15T09:28:17;11.45;;;6.75;;
63005;SDS011;53704;52.532;6.426;2024-02-15T09:30:53;8.25;;;5.93;;
63005;SDS011;53704;52.532;6.426;2024-02-15T09:33:24;10.65;;;5.82;;
63005;SDS011;53704;52.532;6.426;2024-02-15T09:35:51;9.88;;;6.57;;
63005;SDS011;53704;52.532;6.426;2024-02-15T09:38:20;9.02;;;5.60;;
63005;SDS011;53704;52.532;6.426;2024-02-15T09:40:50;6.30;;;5.40;;
63005;SDS011;53704;52.532;6.426;2024-02-15T09:43:16;11.23;;;5.88;;
63005;SDS011;53704;52.532;6.426;2024-02-15T09:45:54;15.23;;;6.05;;
63005;SDS011;53704;52.532;6.426;2024-02-15T09:48:22;6.45;;;5.95;;
63005;SDS011;53704;52.532;6.426;2024-02-15T09:50:51;9.75;;;6.03;;
63005;SDS011;53704;52.532;6.426;2024-02-15T09:53:21;12.32;;;6.00;;
63005;SDS011;53704;52.532;6.426;2024-02-15T09:55:51;7.95;;;5.82;;
63005;SDS011;53704;52.532;6.426;2024-02-15T09:58:19;9.55;;;5.68;;
63005;SDS011;53704;52.532;6.426;2024-02-15T10:00:48;8.93;;;6.38;;
63005;SDS011;53704;52.532;6.426;2024-02-15T10:03:16;8.00;;;5.63;;
63005;SDS011;53704;52.532;6.426;2024-02-15T10:05:48;5.20;;;4.75;;
63005;SDS011;53704;52.532;6.426;2024-02-15T10:08:15;5.35;;;4.85;;
63005;SDS011;53704;52.532;6.426;2024-02-15T10:10:42;7.05;;;4.60;;
63005;SDS011;53704;52.532;6.426;2024-02-15T10:13:12;4.68;;;4.25;;
63005;SDS011;53704;52.532;6.426;2024-02-15T10:15:39;4.40;;;4.00;;
63005;SDS011;53704;52.532;6.426;2024-02-15T10:18:06;7.05;;;4.07;;
63005;SDS011;53704;52.532;6.426;2024-02-15T10:20:35;4.30;;;4.00;;
63005;SDS011;53704;52.532;6.426;2024-02-15T10:23:13;4.78;;;3.85;;
63005;SDS011;53704;52.532;6.426;2024-02-15T10:25:43;7.47;;;3.92;;
63005;SDS011;53704;52.532;6.426;2024-02-15T10:28:10;4.63;;;3.80;;
63005;SDS011;53704;52.532;6.426;2024-02-15T10:30:38;3.60;;;3.40;;
63005;SDS011;53704;52.532;6.426;2024-02-15T10:33:05;4.25;;;3.35;;
63005;SDS011;53704;52.532;6.426;2024-02-15T10:35:35;4.22;;;3.25;;
63005;SDS011;53704;52.532;6.426;2024-02-15T10:38:09;2.85;;;2.70;;
63005;SDS011;53704;52.532;6.426;2024-02-15T10:40:40;3.10;;;2.75;;
63005;SDS011;53704;52.532;6.426;2024-02-15T10:43:08;2.97;;;2.78;;
63005;SDS011;53704;52.532;6.426;2024-02-15T10:45:38;3.10;;;2.90;;
63005;SDS011;53704;52.532;6.426;2024-02-15T10:48:07;4.10;;;3.15;;
63005;SDS011;53704;52.532;6.426;2024-02-15T10:50:33;3.38;;;2.63;;
63005;SDS011;53704;52.532;6.426;2024-02-15T10:53:02;2.58;;;2.38;;
63005;SDS011;53704;52.532;6.426;2024-02-15T10:55:44;2.70;;;2.50;;
63005;SDS011;53704;52.532;6.426;2024-02-15T10:58:25;6.47;;;2.80;;
63005;SDS011;53704;52.532;6.426;2024-02-15T11:00:56;3.00;;;2.80;;
63005;SDS011;53704;52.532;6.426;2024-02-15T11:03:25;6.50;;;3.15;;
63005;SDS011;53704;52.532;6.426;2024-02-15T11:06:01;3.83;;;2.90;;
63005;SDS011;53704;52.532;6.426;2024-02-15T11:08:30;2.90;;;2.58;;
63005;SDS011;53704;52.532;6.426;2024-02-15T11:10:57;3.40;;;3.10;;
63005;SDS011;53704;52.532;6.426;2024-02-15T11:13:27;2.92;;;2.80;;
63005;SDS011;53704;52.532;6.426;2024-02-15T11:15:54;3.28;;;2.92;;
63005;SDS011;53704;52.532;6.426;2024-02-15T11:21:52;5.25;;;2.70;;
63005;SDS011;53704;52.532;6.426;2024-02-15T11:24:27;4.93;;;2.45;;
63005;SDS011;53704;52.532;6.426;2024-02-15T11:27:04;7.10;;;2.60;;
63005;SDS011;53704;52.532;6.426;2024-02-15T11:29:48;4.05;;;2.72;;
63005;SDS011;53704;52.532;6.426;2024-02-15T11:35:12;4.63;;;3.42;;
63005;SDS011;53704;52.532;6.426;2024-02-15T11:40:18;7.32;;;3.65;;
63005;SDS011;53704;52.532;6.426;2024-02-15T11:42:44;10.02;;;3.40;;
63005;SDS011;53704;52.532;6.426;2024-02-15T11:45:15;10.50;;;3.97;;
63005;SDS011;53704;52.532;6.426;2024-02-15T11:47:44;6.75;;;3.83;;
63005;SDS011;53704;52.532;6.426;2024-02-15T11:50:20;14.63;;;4.20;;
63005;SDS011;53704;52.532;6.426;2024-02-15T11:52:47;10.30;;;3.78;;
63005;SDS011;53704;52.532;6.426;2024-02-15T11:55:21;6.25;;;3.92;;
63005;SDS011;53704;52.532;6.426;2024-02-15T11:57:57;7.35;;;4.07;;
63005;SDS011;53704;52.532;6.426;2024-02-15T12:00:36;12.25;;;3.97;;
63005;SDS011;53704;52.532;6.426;2024-02-15T12:03:23;14.85;;;4.00;;
63005;SDS011;53704;52.532;6.426;2024-02-15T12:06:08;8.50;;;4.13;;
63005;SDS011;53704;52.532;6.426;2024-02-15T12:08:53;4.60;;;4.10;;
63005;SDS011;53704;52.532;6.426;2024-02-15T12:11:38;6.60;;;4.53;;
63005;SDS011;53704;52.532;6.426;2024-02-15T12:14:23;11.35;;;4.78;;
63005;SDS011;53704;52.532;6.426;2024-02-15T12:17:08;8.15;;;4.30;;
63005;SDS011;53704;52.532;6.426;2024-02-15T12:19:57;8.50;;;4.70;;
63005;SDS011;53704;52.532;6.426;2024-02-15T12:22:28;19.23;;;5.28;;
63005;SDS011;53704;52.532;6.426;2024-02-15T12:24:59;14.23;;;5.10;;
63005;SDS011;53704;52.532;6.426;2024-02-15T12:27:26;21.40;;;5.20;;
63005;SDS011;53704;52.532;6.426;2024-02-15T12:32:25;17.23;;;5.53;;
63005;SDS011;53704;52.532;6.426;2024-02-15T12:34:52;11.52;;;4.82;;
63005;SDS011;53704;52.532;6.426;2024-02-15T12:37:40;13.60;;;4.63;;
63005;SDS011;53704;52.532;6.426;2024-02-15T12:40:10;12.30;;;5.75;;
63005;SDS011;53704;52.532;6.426;2024-02-15T12:42:45;17.80;;;5.20;;
63005;SDS011;53704;52.532;6.426;2024-02-15T12:45:18;12.18;;;4.82;;
63005;SDS011;53704;52.532;6.426;2024-02-15T12:47:47;11.60;;;5.85;;
63005;SDS011;53704;52.532;6.426;2024-02-15T12:50:17;12.50;;;5.13;;
63005;SDS011;53704;52.532;6.426;2024-02-15T12:52:48;9.32;;;5.65;;
63005;SDS011;53704;52.532;6.426;2024-02-15T12:57:47;11.55;;;5.63;;
63005;SDS011;53704;52.532;6.426;2024-02-15T13:00:16;6.38;;;5.22;;
63005;SDS011;53704;52.532;6.426;2024-02-15T13:02:44;9.73;;;5.30;;
63005;SDS011;53704;52.532;6.426;2024-02-15T13:05:11;17.77;;;5.63;;
63005;SDS011;53704;52.532;6.426;2024-02-15T13:07:37;14.90;;;5.75;;
63005;SDS011;53704;52.532;6.426;2024-02-15T13:10:04;10.95;;;5.43;;
63005;SDS011;53704;52.532;6.426;2024-02-15T13:12:32;14.98;;;6.22;;
63005;SDS011;53704;52.532;6.426;2024-02-15T13:15:03;16.20;;;6.32;;
63005;SDS011;53704;52.532;6.426;2024-02-15T13:17:31;13.57;;;5.70;;
63005;SDS011;53704;52.532;6.426;2024-02-15T13:20:00;20.77;;;5.32;;
63005;SDS011;53704;52.532;6.426;2024-02-15T13:22:32;5.68;;;4.97;;
63005;SDS011;53704;52.532;6.426;2024-02-15T13:25:05;11.65;;;5.32;;
63005;SDS011;53704;52.532;6.426;2024-02-15T13:27:33;14.25;;;5.82;;
63005;SDS011;53704;52.532;6.426;2024-02-15T13:29:59;12.05;;;6.13;;
63005;SDS011;53704;52.532;6.426;2024-02-15T13:32:25;15.75;;;6.22;;
63005;SDS011;53704;52.532;6.426;2024-02-15T13:34:51;18.45;;;5.65;;
63005;SDS011;53704;52.532;6.426;2024-02-15T13:37:19;18.83;;;6.55;;
63005;SDS011;53704;52.532;6.426;2024-02-15T13:39:47;17.95;;;7.30;;
63005;SDS011;53704;52.532;6.426;2024-02-15T13:42:13;17.02;;;6.35;;
63005;SDS011;53704;52.532;6.426;2024-02-15T13:44:42;11.60;;;6.53;;
63005;SDS011;53704;52.532;6.426;2024-02-15T13:47:09;16.75;;;8.90;;
63005;SDS011;53704;52.532;6.426;2024-02-15T13:49:36;35.08;;;16.58;;
63005;SDS011;53704;52.532;6.426;2024-02-15T13:52:04;83.53;;;37.13;;
63005;SDS011;53704;52.532;6.426;2024-02-15T13:54:31;30.98;;;12.30;;
63005;SDS011;53704;52.532;6.426;2024-02-15T13:56:58;22.35;;;10.52;;
63005;SDS011;53704;52.532;6.426;2024-02-15T13:59:28;16.83;;;6.63;;
63005;SDS011;53704;52.532;6.426;2024-02-15T14:01:59;12.88;;;7.38;;
63005;SDS011;53704;52.532;6.426;2024-02-15T14:04:25;19.15;;;6.07;;
63005;SDS011;53704;52.532;6.426;2024-02-15T14:06:53;18.70;;;5.70;;
63005;SDS011;53704;52.532;6.426;2024-02-15T14:09:25;13.32;;;5.32;;
63005;SDS011;53704;52.532;6.426;2024-02-15T14:11:53;10.52;;;5.45;;
63005;SDS011;53704;52.532;6.426;2024-02-15T14:14:19;20.05;;;6.13;;
63005;SDS011;53704;52.532;6.426;2024-02-15T14:16:47;18.17;;;6.10;;
63005;SDS011;53704;52.532;6.426;2024-02-15T14:19:13;13.77;;;6.25;;
63005;SDS011;53704;52.532;6.426;2024-02-15T14:21:39;13.32;;;5.68;;
63005;SDS011;53704;52.532;6.426;2024-02-15T14:24:08;10.02;;;5.65;;
63005;SDS011;53704;52.532;6.426;2024-02-15T14:26:35;12.90;;;5.30;;
63005;SDS011;53704;52.532;6.426;2024-02-15T14:29:01;9.80;;;4.50;;
63005;SDS011;53704;52.532;6.426;2024-02-15T14:31:30;9.93;;;5.00;;
63005;SDS011;53704;52.532;6.426;2024-02-15T14:34:15;16.17;;;5.20;;
63005;SDS011;53704;52.532;6.426;2024-02-15T14:36:42;13.02;;;4.70;;
63005;SDS011;53704;52.532;6.426;2024-02-15T14:39:10;13.35;;;5.40;;
63005;SDS011;53704;52.532;6.426;2024-02-15T14:41:38;10.98;;;4.97;;
63005;SDS011;53704;52.532;6.426;2024-02-15T14:44:07;12.73;;;5.15;;
63005;SDS011;53704;52.532;6.426;2024-02-15T14:46:37;9.73;;;4.20;;
63005;SDS011;53704;52.532;6.426;2024-02-15T14:49:05;16.75;;;4.35;;
63005;SDS011;53704;52.532;6.426;2024-02-15T14:51:31;10.25;;;4.40;;
63005;SDS011;53704;52.532;6.426;2024-02-15T14:54:01;15.25;;;5.07;;